createdAt,value
2019-01-25T00:01:28.551Z,-1.30
2019-01-25T00:06:29.809Z,-1.20
2019-01-25T00:11:31.156Z,-1.10
2019-01-25T00:16:32.398Z,-1.10
2019-01-25T00:21:33.655Z,-1.20
2019-01-25T00:26:34.885Z,-1.20
2019-01-25T00:31:36.122Z,-1.20
2019-01-25T00:36:37.363Z,-1.30
2019-01-25T00:41:38.626Z,-1.30
2019-01-25T00:46:39.859Z,-1.30
2019-01-25T00:51:41.131Z,-1.40
2019-01-25T00:56:42.600Z,-1.50
2019-01-25T01:01:43.955Z,-1.60
2019-01-25T01:06:45.203Z,-1.50
2019-01-25T01:11:46.480Z,-1.60
2019-01-25T01:16:47.721Z,-1.50
2019-01-25T01:21:48.966Z,-1.50
2019-01-25T01:26:50.202Z,-1.40
2019-01-25T01:31:51.450Z,-1.40
2019-01-25T01:36:52.717Z,-1.40
2019-01-25T01:41:53.964Z,-1.30
2019-01-25T01:46:55.229Z,-1.40
2019-01-25T01:51:56.476Z,-1.40
2019-01-25T01:56:57.721Z,-1.50
2019-01-25T02:01:58.972Z,-1.50
2019-01-25T02:07:00.232Z,-1.40
2019-01-25T02:12:01.475Z,-1.50
2019-01-25T02:17:03.143Z,-1.50
2019-01-25T02:22:04.378Z,-1.50
2019-01-25T02:27:05.727Z,-1.50
2019-01-25T02:32:08.883Z,-1.60
2019-01-25T02:37:10.121Z,-1.60
2019-01-25T02:42:11.368Z,-1.60
2019-01-25T02:47:14.554Z,-1.60
2019-01-25T02:52:15.795Z,-1.60
2019-01-25T02:57:18.950Z,-1.50
2019-01-25T03:02:20.200Z,-1.50
2019-01-25T03:07:21.457Z,-1.50
2019-01-25T03:12:25.337Z,-1.40
2019-01-25T03:17:26.587Z,-1.50
2019-01-25T03:22:29.773Z,-1.40
2019-01-25T03:27:31.166Z,-1.30
2019-01-25T03:32:32.455Z,-1.40
2019-01-25T03:37:35.702Z,-1.60
2019-01-25T03:42:43.602Z,-1.60
2019-01-25T03:47:45.082Z,-1.60
2019-01-25T03:52:46.425Z,-1.60
2019-01-25T03:57:47.988Z,-1.50
2019-01-25T04:02:52.343Z,-1.60
2019-01-25T04:07:53.784Z,-1.60
2019-01-25T04:12:56.145Z,-1.60
2019-01-25T04:18:00.543Z,-1.60
2019-01-25T04:23:02.003Z,-1.60
2019-01-25T04:28:09.367Z,-1.60
2019-01-25T04:33:10.726Z,-1.50
2019-01-25T04:38:11.979Z,-1.70
2019-01-25T04:43:13.222Z,-1.70
2019-01-25T04:48:14.792Z,-1.60
2019-01-25T04:53:16.049Z,-1.70
2019-01-25T04:58:17.710Z,-1.60
2019-01-25T05:03:19.267Z,-1.60
2019-01-25T05:08:21.210Z,-1.70
2019-01-25T05:13:22.450Z,-1.70
2019-01-25T05:18:23.718Z,-1.70
2019-01-25T05:23:24.978Z,-1.60
2019-01-25T05:28:26.227Z,-1.60
2019-01-25T05:33:27.776Z,-1.50
2019-01-25T05:38:29.050Z,-1.50
2019-01-25T05:43:37.418Z,-1.50
2019-01-25T05:48:38.960Z,-1.50
2019-01-25T05:53:47.270Z,-1.50
2019-01-25T05:58:50.422Z,-1.50
2019-01-25T06:03:54.864Z,-1.50
2019-01-25T06:08:57.108Z,-1.40
2019-01-25T06:13:58.347Z,-1.40
2019-01-25T06:19:01.516Z,-1.50
2019-01-25T06:24:03.065Z,-1.50
2019-01-25T06:29:04.305Z,-1.40
2019-01-25T06:34:07.574Z,-1.40
2019-01-25T06:39:08.928Z,-1.50
2019-01-25T06:44:12.806Z,-1.50
2019-01-25T06:49:14.063Z,-1.40
2019-01-25T06:54:15.314Z,-1.30
2019-01-25T06:59:18.046Z,-1.30
2019-01-25T07:04:19.401Z,-1.30
2019-01-25T07:09:20.647Z,-1.40
2019-01-25T07:14:21.904Z,-1.30
2019-01-25T07:19:23.141Z,-1.40
2019-01-25T07:24:24.381Z,-1.30
2019-01-25T07:29:25.697Z,-1.30
2019-01-25T07:34:26.964Z,-1.10
2019-01-25T07:39:28.317Z,-1.30
2019-01-25T07:44:29.571Z,-1.40
2019-01-25T07:49:30.813Z,-1.30
2019-01-25T07:54:32.103Z,-1.30
2019-01-25T07:59:33.336Z,-1.20
2019-01-25T08:04:34.600Z,-1.20
2019-01-25T08:09:35.882Z,-1.20
2019-01-25T08:14:37.104Z,-1.30
2019-01-25T08:19:38.336Z,-1.30
2019-01-25T08:24:39.599Z,-1.30
2019-01-25T08:29:40.906Z,-1.10
2019-01-25T08:34:42.138Z,-1.20
2019-01-25T08:39:43.382Z,-1.10
2019-01-25T08:44:47.545Z,-1.10
2019-01-25T08:49:48.849Z,-1.20
2019-01-25T08:54:50.277Z,-1.00
2019-01-25T08:59:51.492Z,-1.10
2019-01-25T09:04:52.752Z,-1.20
2019-01-25T09:09:54.021Z,-1.10
2019-01-25T09:14:55.279Z,-1.00
2019-01-25T09:19:56.537Z,-0.90
2019-01-25T09:24:57.787Z,-0.90
2019-01-25T09:29:59.050Z,-0.80
2019-01-25T09:35:00.366Z,-0.90
2019-01-25T09:40:02.821Z,-0.80
2019-01-25T09:45:08.878Z,-0.70
2019-01-25T09:50:21.660Z,-0.60
2019-01-25T09:55:24.908Z,-0.50
2019-01-25T10:00:37.836Z,-0.30
2019-01-25T10:05:39.090Z,-0.30
2019-01-25T10:10:40.354Z,-0.30
2019-01-25T10:15:41.806Z,-0.50
2019-01-25T10:20:43.083Z,-0.50
2019-01-25T10:25:44.323Z,-0.20
2019-01-25T10:30:45.584Z,0.00
2019-01-25T10:35:47.065Z,0.00
2019-01-25T10:40:48.310Z,-0.10
2019-01-25T10:45:49.559Z,0.20
2019-01-25T10:50:51.155Z,0.30
2019-01-25T10:55:52.402Z,0.50
2019-01-25T11:00:53.779Z,0.40
2019-01-25T11:05:55.061Z,0.40
2019-01-25T11:10:56.331Z,0.60
2019-01-25T11:15:57.583Z,0.50
2019-01-25T11:20:58.853Z,0.50
2019-01-25T11:26:00.105Z,0.70
2019-01-25T11:31:01.475Z,0.50
2019-01-25T11:36:03.233Z,0.60
2019-01-25T11:41:05.041Z,0.60
2019-01-25T11:46:06.257Z,0.70
2019-01-25T11:51:07.512Z,0.90
2019-01-25T11:56:08.970Z,0.90
2019-01-25T12:01:10.222Z,0.70
2019-01-25T12:06:11.512Z,0.80
2019-01-25T12:11:12.767Z,0.80
2019-01-25T12:16:14.198Z,1.00
2019-01-25T12:21:15.565Z,1.60
2019-01-25T12:26:16.829Z,1.80
2019-01-25T12:31:18.091Z,2.40
2019-01-25T12:36:19.372Z,2.50
2019-01-25T12:41:20.603Z,2.60
2019-01-25T12:46:21.868Z,2.90
2019-01-25T12:51:23.674Z,2.80
2019-01-25T12:56:24.933Z,2.70
2019-01-25T13:01:26.198Z,3.30
2019-01-25T13:06:28.070Z,3.30
2019-01-25T13:11:29.440Z,3.30
2019-01-25T13:16:30.814Z,2.90
2019-01-25T13:21:32.210Z,2.90
2019-01-25T13:26:33.576Z,3.00
2019-01-25T13:31:35.055Z,2.90
2019-01-25T13:36:36.401Z,3.00
2019-01-25T13:41:37.691Z,3.20
2019-01-25T13:46:38.990Z,3.10
2019-01-25T13:51:40.349Z,3.20
2019-01-25T13:56:41.636Z,3.10
2019-01-25T14:01:42.893Z,3.10
2019-01-25T14:06:44.244Z,2.80
2019-01-25T14:11:45.501Z,2.30
2019-01-25T14:16:46.774Z,2.40
2019-01-25T14:21:48.029Z,2.40
2019-01-25T14:26:49.296Z,2.30
2019-01-25T14:31:51.495Z,2.40
2019-01-25T14:36:52.749Z,2.40
2019-01-25T14:41:54.023Z,2.50
2019-01-25T14:46:55.310Z,2.50
2019-01-25T14:51:56.602Z,2.40
2019-01-25T14:56:57.877Z,2.40
2019-01-25T15:01:59.117Z,2.30
2019-01-25T15:07:00.395Z,2.30
2019-01-25T15:12:01.756Z,2.30
2019-01-25T15:17:03.140Z,2.20
2019-01-25T15:22:04.496Z,2.20
2019-01-25T15:27:05.761Z,2.10
2019-01-25T15:32:07.018Z,2.20
2019-01-25T15:37:08.384Z,2.10
2019-01-25T15:42:09.655Z,2.10
2019-01-25T15:47:10.961Z,2.10
2019-01-25T15:52:12.217Z,2.10
2019-01-25T15:57:13.460Z,2.10
2019-01-25T16:02:14.737Z,2.10
2019-01-25T16:07:15.973Z,2.00
2019-01-25T16:12:17.261Z,2.00
2019-01-25T16:17:18.630Z,2.00
2019-01-25T16:22:19.879Z,2.00
2019-01-25T16:27:21.157Z,2.10
2019-01-25T16:32:22.415Z,2.00
2019-01-25T16:37:23.686Z,2.00
2019-01-25T16:42:24.936Z,2.00
2019-01-25T16:47:26.221Z,1.90
2019-01-25T16:52:27.475Z,1.90
2019-01-25T16:57:28.750Z,1.90
2019-01-25T17:02:30.009Z,2.00
2019-01-25T17:07:31.290Z,1.90
2019-01-25T17:12:32.642Z,2.00
2019-01-25T17:17:33.938Z,2.00
2019-01-25T17:22:35.219Z,1.90
2019-01-25T17:27:36.666Z,1.90
2019-01-25T17:32:37.950Z,1.90
2019-01-25T17:37:39.237Z,1.90
2019-01-25T17:42:40.800Z,1.80
2019-01-25T17:47:42.212Z,1.90
2019-01-25T17:52:43.667Z,1.90
2019-01-25T17:57:45.037Z,1.90
2019-01-25T18:02:46.505Z,1.90
2019-01-25T18:07:47.860Z,1.80
2019-01-25T18:12:49.526Z,1.80
2019-01-25T18:17:51.002Z,1.80
2019-01-25T18:22:52.586Z,1.80
2019-01-25T18:28:11.155Z,1.70
2019-01-25T18:33:12.445Z,1.70
2019-01-25T18:38:13.823Z,1.60
2019-01-25T18:43:15.385Z,1.60
2019-01-25T18:48:16.872Z,1.40
2019-01-25T18:53:18.154Z,1.40
2019-01-25T18:58:19.422Z,1.40
2019-01-25T19:03:21.126Z,1.50
2019-01-25T19:08:22.485Z,1.40
2019-01-25T19:13:23.809Z,1.40
2019-01-25T19:18:25.082Z,1.40
2019-01-25T19:23:26.469Z,1.40
2019-01-25T19:28:27.754Z,1.40
2019-01-25T19:33:29.075Z,1.30
2019-01-25T19:38:30.447Z,1.20
2019-01-25T19:43:31.953Z,1.20
2019-01-25T19:48:33.383Z,1.00
2019-01-25T19:53:34.766Z,1.00
2019-01-25T19:58:36.149Z,0.90
2019-01-25T20:03:37.900Z,0.90
2019-01-25T20:08:39.649Z,0.70
2019-01-25T20:13:42.271Z,0.70
2019-01-25T20:18:43.651Z,0.70
2019-01-25T20:23:45.070Z,0.70
2019-01-25T20:28:46.349Z,0.60
2019-01-25T20:33:47.726Z,0.60
2019-01-25T20:38:49.117Z,0.60
2019-01-25T20:43:53.002Z,0.50
2019-01-25T20:48:54.283Z,0.50
2019-01-25T20:53:55.564Z,0.50
2019-01-25T20:58:57.032Z,0.40
2019-01-25T21:03:58.268Z,0.60
2019-01-25T21:08:59.575Z,0.40
2019-01-25T21:14:00.937Z,0.50
2019-01-25T21:19:02.320Z,0.50
2019-01-25T21:24:04.038Z,0.40
2019-01-25T21:29:05.290Z,0.50
2019-01-25T21:34:06.750Z,0.50
2019-01-25T21:39:09.221Z,0.40
2019-01-25T21:44:10.517Z,0.50
2019-01-25T21:49:14.573Z,0.40
2019-01-25T21:54:15.840Z,0.40
2019-01-25T21:59:17.111Z,0.50
2019-01-25T22:04:20.158Z,0.40
2019-01-25T22:09:21.515Z,0.50
2019-01-25T22:14:22.792Z,0.50
2019-01-25T22:19:24.126Z,0.40
2019-01-25T22:24:25.330Z,0.50
2019-01-25T22:29:26.602Z,0.50
2019-01-25T22:34:30.099Z,0.50
2019-01-25T22:39:31.381Z,0.60
2019-01-25T22:44:32.843Z,0.50
2019-01-25T22:49:34.120Z,0.50
2019-01-25T22:54:35.364Z,0.50
2019-01-25T22:59:36.637Z,0.50
2019-01-25T23:04:52.095Z,0.40
2019-01-25T23:09:53.345Z,0.40
2019-01-25T23:14:54.593Z,0.50
2019-01-25T23:19:55.861Z,0.60
2019-01-25T23:24:57.117Z,0.60
2019-01-25T23:29:58.399Z,0.60
2019-01-25T23:34:59.791Z,0.70
2019-01-25T23:40:01.144Z,0.70
2019-01-25T23:45:04.820Z,0.70
2019-01-25T23:50:08.549Z,0.80
2019-01-25T23:55:10.497Z,0.80
